Top 100 Buffalo Area 5K Performances of 2020  
  Men  25-29
  10/21/2021      5:03:54 PM     Current Display: USATF Certified Courses Only
rank name time racename date place inSex inGroup group
1 Matthew Chase 0:16:43 Veterans Race 11/7/2020 2 2 1 25-29
2 Robert Cooper 0:16:51 The Mighty Fitz 11/7/2020 1 1 1 25-29
3 Ian Heschke 0:17:47 Mr Ed's Super Bowl Warmup 2/2/2020 1 1 1 25-29
4 Luke Rogers 0:18:08 Polar Bear 5K 2/23/2020 2 2 1 25-29
5 Luke Rogers 0:18:27 Mr Ed's Super Bowl Warmup 2/2/2020 2 2 2 25-29
6 Stephen Dewes 0:18:29 Mr Ed's Super Bowl Warmup 2/2/2020 4 4 3 25-29
7 Joseph Difabio 0:18:37 The Mighty Fitz 11/7/2020 4 4 2 25-29
8 Matthew Durawa 0:19:20 Buffalo Home Sellers 10/4/2020 4 4 1 25-29
9 Matthew Durawa 0:19:40 EVL 5K 10/24/2020 6 6 1 25-29
10 Matthew Durawa 0:20:03 The Mighty Fitz 11/7/2020 7 7 3 25-29
11 Matthew Durawa 0:20:09 New Years Eve 5K 12/31/2020 3 3 1 25-29
12 Matthew Durawa 0:20:10 Glen Iris 5K 9/13/2020 7 7 1 20-29
13 Huanfeng Cheng 0:20:12 NF Firefighters Toy Drive 5K 10/10/2020 3 3 1 25-29
14 Michael Lantinen 0:20:58 Mr Ed's Super Bowl Warmup 2/2/2020 10 9 4 25-29
15 Andrew Dobmeier 0:21:01 Buffalo Home Sellers 10/4/2020 5 5 2 25-29
16 Jacob Anastasia 0:21:11 Polar Bear 5K 2/23/2020 10 10 2 25-29
17 Philip Schierer 0:21:16 Glen Iris 5K 9/13/2020 10 9 2 20-29
18 Joshua Perez 0:21:18 New Years Day 5K 1/1/2020 4 4 1 20-29
19 Jacob Anastasia 0:21:40 Penguin Run 1/26/2020 6 7 1 25-29
20 Huanfeng Cheng 0:21:45 Holiday 5K at Old Fort Niagara 12/19/2020 14 12 1 25-29
21 Jeffrey Wilson 0:21:59 Penguin Run 1/26/2020 11 12 2 25-29
22 Corey Hollister 0:23:05 Glen Iris 5K 9/13/2020 18 16 3 20-29
23 Patrick Bouchane 0:23:12 Veterans Race 11/7/2020 46 38 2 25-29
24 Nathan Anastasia 0:23:31 Polar Bear 5K 2/23/2020 27 25 3 25-29
25 Michael Curtiss, III 0:23:50 New Years Day 5K 1/1/2020 16 11 2 20-29
25 Joe Sliwinski 0:23:50 Mr Ed's Super Bowl Warmup 2/2/2020 50 46 5 25-29
27 Patrick Bouchane 0:23:56 Polar Bear 5K 2/23/2020 32 30 4 25-29
28 Patrick Crumb 0:24:01 Mr Ed's Super Bowl Warmup 2/2/2020 56 51 6 25-29
29 Nathan Anastasia 0:24:07 Penguin Run 1/26/2020 34 31 3 25-29
30 Arek Janiga 0:24:13 Glen Iris 5K 9/13/2020 22 18 4 20-29
31 Matthew Smith 0:24:35 EVL 5K 10/24/2020 32 23 2 25-29
32 Anthony Kroese 0:24:55 Penguin Run 1/26/2020 42 37 4 25-29
33 Joel Koebel 0:25:21 EVL 5K 10/24/2020 40 28 3 25-29
34 Brian Murray 0:25:24 EVL 5K 10/24/2020 42 30 4 25-29
35 Adam Doktor 0:25:52 The Mighty Fitz 11/7/2020 47 38 4 25-29
36 Nathaniel D'Alesandro 0:26:03 EVL 5K 10/24/2020 49 35 5 25-29
37 Thomas Bavaro 0:26:07 Harvest Moon Run 9/9/2020 15 10 1 25-29
37 Andrew Fitch 0:26:07 Polar Bear 5K 2/23/2020 57 48 5 25-29
39 Phil Aronica 0:26:15 Buffalo Home Sellers 10/4/2020 18 14 3 25-29
40 Joshua King 0:26:16 The Mighty Fitz 11/7/2020 52 41 5 25-29
41 Matthew Mallow 0:26:32 NF Firefighters Toy Drive 5K 10/10/2020 13 9 2 25-29
42 Christopher Hellwig 0:26:34 EVL 5K 10/24/2020 60 42 6 25-29
43 Justin Taylor 0:26:50 EVL 5K 10/24/2020 62 44 7 25-29
44 Michael Zedick 0:26:52 Veterans Race 11/7/2020 87 63 3 25-29
45 Matt Sills 0:27:13 Mr Ed's Super Bowl Warmup 2/2/2020 118 95 7 25-29
46 Gerald Ventry 0:27:22 Holiday 5K at Old Fort Niagara 12/19/2020 69 54 1 25-29
47 Austin Amoretti 0:27:23 NF Firefighters Toy Drive 5K 10/10/2020 17 13 3 25-29
48 Michael Jacobi 0:27:51 Polar Bear 5K 2/23/2020 84 67 6 25-29
49 Pat Krebs 0:28:09 Mr Ed's Super Bowl Warmup 2/2/2020 145 109 8 25-29
50 Mike Malaney 0:28:21 The Mighty Fitz 11/7/2020 69 51 6 25-29
51 John Squires 0:28:22 EVL 5K 10/24/2020 99 55 8 25-29
52 Evan Castellani 0:28:47 NF Firefighters Toy Drive 5K 10/10/2020 21 15 4 25-29
53 Julien Kann 0:28:52 EVL 5K 10/24/2020 112 62 9 25-29
54 Thomas Bavaro 0:29:11 The Mighty Fitz 11/7/2020 74 53 7 25-29
55 Kwasi Adusei 0:29:16 Glen Iris 5K 9/13/2020 56 39 5 20-29
56 Nicholas Taylor 0:29:18 NF Firefighters Toy Drive 5K 10/10/2020 23 16 5 25-29
57 Ryan Galvin 0:29:24 Penguin Run 1/26/2020 132 87 5 25-29
58 Thomas Lamar 0:29:47 The Mighty Fitz 11/7/2020 77 56 8 25-29
59 Levi Goertz 0:30:06 New Years Day 5K 1/1/2020 79 52 4 20-29
60 Clayton Sauberan 0:30:08 Frozen Chosen 5K 2/8/2020 58 37 1 25-29
61 Hunter Mohney 0:30:12 EVL 5K 10/24/2020 144 72 10 25-29
62 Tylor Holtz 0:30:20 The Mighty Fitz 11/7/2020 82 58 9 25-29
63 Ryan Galvin 0:30:34 New Years Day 5K 1/1/2020 84 54 5 20-29
64 Zeke Given 0:30:59 Mr Ed's Super Bowl Warmup 2/2/2020 197 140 9 25-29
65 Vytautas Kakaras 0:31:33 New Years Day 5K 1/1/2020 91 58 6 20-29
66 Mark Holley 0:32:00 Mr Ed's Super Bowl Warmup 2/2/2020 221 150 10 25-29
67 Zach Fischer 0:32:23 EVL 5K 10/24/2020 186 85 11 25-29
68 Stephen Curtiss 0:32:31 New Years Day 5K 1/1/2020 96 61 7 20-29
69 Michael Gioia 0:32:38 Polar Bear 5K 2/23/2020 156 96 7 25-29
70 Kevin Ostempowski 0:33:08 Penguin Run 1/26/2020 201 110 6 25-29
71 George Theodorou 0:33:56 Mr Ed's Super Bowl Warmup 2/2/2020 246 161 11 25-29
72 Sean Connelly 0:34:14 Penguin Run 1/26/2020 224 117 7 25-29
72 Thomas Lamar 0:34:14 Holiday 5K at Old Fort Niagara 12/19/2020 159 93 1 25-29
74 Dennis Elsenbeck 0:35:25 Frozen Chosen 5K 2/8/2020 91 46 2 25-29
75 Matthew Matre 0:35:26 Penguin Run 1/26/2020 244 123 8 25-29
76 Storm Phillips 0:38:27 EVL 5K 10/24/2020 291 118 12 25-29
77 Bradley Berbach 0:41:48 EVL 5K 10/24/2020 326 128 13 25-29
78 Aaron Miller 0:44:23 Veterans Race 11/7/2020 180 114 4 25-29
79 Shawn Hoerner 0:45:03 Penguin Run 1/26/2020 299 139 9 25-29
80 Wally Thompson 0:47:55 Frozen Chosen 5K 2/8/2020 122 59 3 25-29
81 Noah Zygmunt 0:48:02 Penguin Run 1/26/2020 309 142 10 25-29
82 Noah Zygmunt 0:48:27 Mr Ed's Super Bowl Warmup 2/2/2020 350 206 12 25-29
83 Peter Raber 0:58:32 EVL 5K 10/24/2020 406 146 14 25-29
 


Home     Races     Results     Resources     Links     Forum     Pictures     Contact Us    

Copyright © 2000 - 2021   BuffaloRunners.com